Time;durP1;ratioP1;P1;durP2;ratioP2;P2;SDS_P1;SDS_P2;PMS_P1;PMS_P2;Temp;Humidity;BMP_temperature;BMP_pressure;BME280_temperature;BME280_humidity;BME280_pressure;Samples;Min_cycle;Max_cycle;Signal;HPM_P1;HPM_P2
2024/03/17 00:01:14;;;;;;;5.93;2.88;;;;;;;;;;5072068;28;20032;-81
2024/03/17 00:04:00;;;;;;;10.50;3.42;;;;;;;;;;5071594;28;20502;-81
2024/03/17 00:06:45;;;;;;;5.65;2.65;;;;;;;;;;5063951;28;20032;-81
2024/03/17 00:09:30;;;;;;;7.57;2.72;;;;;;;;;;5071765;28;20482;-81
2024/03/17 00:12:16;;;;;;;4.50;2.65;;;;;;;;;;5071788;28;20434;-81
2024/03/17 00:15:01;;;;;;;4.38;2.78;;;;;;;;;;5071776;28;20482;-80
2024/03/17 00:17:46;;;;;;;7.68;2.95;;;;;;;;;;5070560;28;20112;-81
2024/03/17 00:20:32;;;;;;;5.07;3.10;;;;;;;;;;5071518;28;20028;-81
2024/03/17 00:23:17;;;;;;;6.97;3.17;;;;;;;;;;5071466;28;20020;-81
2024/03/17 00:26:02;;;;;;;7.93;3.08;;;;;;;;;;5068574;28;20020;-80
2024/03/17 00:28:50;;;;;;;6.18;3.15;;;;;;;;;;5071525;28;20050;-83
2024/03/17 00:31:37;;;;;;;6.43;3.30;;;;;;;;;;5071711;28;20107;-81
2024/03/17 00:34:22;;;;;;;9.38;4.40;;;;;;;;;;5066419;28;20045;-83
2024/03/17 00:37:07;;;;;;;5.35;3.38;;;;;;;;;;5052194;28;20040;-82
2024/03/17 00:39:52;;;;;;;5.97;3.03;;;;;;;;;;5043336;28;20114;-82
2024/03/17 00:42:38;;;;;;;5.25;2.95;;;;;;;;;;5063099;28;20115;-82
2024/03/17 00:45:23;;;;;;;6.78;3.50;;;;;;;;;;5063427;28;20031;-82
2024/03/17 00:48:09;;;;;;;5.68;3.75;;;;;;;;;;5067183;28;20034;-82
2024/03/17 00:50:58;;;;;;;9.48;3.78;;;;;;;;;;5063704;28;20031;-81
2024/03/17 00:53:43;;;;;;;8.05;3.88;;;;;;;;;;5056789;28;20023;-81
2024/03/17 00:56:28;;;;;;;9.27;4.68;;;;;;;;;;5060158;28;20032;-81
2024/03/17 00:59:14;;;;;;;8.10;4.18;;;;;;;;;;5071403;28;20531;-81
2024/03/17 01:01:59;;;;;;;8.35;3.80;;;;;;;;;;5070748;28;20016;-81
2024/03/17 01:04:45;;;;;;;5.47;3.55;;;;;;;;;;5069758;28;20084;-81
2024/03/17 01:07:30;;;;;;;6.22;3.40;;;;;;;;;;5046563;28;20016;-81
2024/03/17 01:10:16;;;;;;;7.47;2.60;;;;;;;;;;5070967;28;20088;-81
2024/03/17 01:13:01;;;;;;;5.40;2.60;;;;;;;;;;5070358;28;20023;-81
2024/03/17 01:15:51;;;;;;;6.95;3.25;;;;;;;;;;5069742;28;20429;-81
2024/03/17 01:18:37;;;;;;;6.05;3.67;;;;;;;;;;5070856;28;20107;-80
2024/03/17 01:21:22;;;;;;;7.63;4.00;;;;;;;;;;5046024;28;20051;-80
2024/03/17 01:24:07;;;;;;;5.22;3.00;;;;;;;;;;5066457;28;20019;-80
2024/03/17 01:26:53;;;;;;;4.75;3.13;;;;;;;;;;5057958;28;20036;-80
2024/03/17 01:29:38;;;;;;;6.10;3.17;;;;;;;;;;5050356;28;20016;-79
2024/03/17 01:32:23;;;;;;;6.13;3.47;;;;;;;;;;5066657;28;20032;-80
2024/03/17 01:35:08;;;;;;;6.95;3.03;;;;;;;;;;5059664;28;20047;-80
2024/03/17 01:37:54;;;;;;;5.68;3.10;;;;;;;;;;5070323;28;20024;-79
2024/03/17 01:40:39;;;;;;;9.40;2.78;;;;;;;;;;5060575;28;20024;-78
2024/03/17 01:43:26;;;;;;;5.47;3.13;;;;;;;;;;5069206;28;20020;-80
2024/03/17 01:46:12;;;;;;;5.28;2.55;;;;;;;;;;5054401;28;20680;-80
2024/03/17 01:48:58;;;;;;;3.90;2.42;;;;;;;;;;5048427;28;20062;-81
2024/03/17 01:51:44;;;;;;;6.07;2.92;;;;;;;;;;5062529;28;20399;-81
2024/03/17 01:54:29;;;;;;;6.57;2.97;;;;;;;;;;5062749;28;20089;-82
2024/03/17 01:57:15;;;;;;;9.02;2.58;;;;;;;;;;5041207;28;20032;-81
2024/03/17 02:00:00;;;;;;;6.35;3.15;;;;;;;;;;5070182;28;20548;-82
2024/03/17 02:02:45;;;;;;;4.95;2.53;;;;;;;;;;5074160;28;20111;-82
2024/03/17 02:05:30;;;;;;;4.60;2.92;;;;;;;;;;5054016;28;20036;-82
2024/03/17 02:08:16;;;;;;;5.53;2.55;;;;;;;;;;5054266;28;20085;-82
2024/03/17 02:11:01;;;;;;;4.70;2.85;;;;;;;;;;5062874;28;20093;-82
2024/03/17 02:13:46;;;;;;;5.40;2.90;;;;;;;;;;5072709;28;20099;-81
2024/03/17 02:16:31;;;;;;;3.92;2.47;;;;;;;;;;5073554;28;20028;-81
2024/03/17 02:19:17;;;;;;;4.93;2.67;;;;;;;;;;5068460;28;20085;-81
2024/03/17 02:22:02;;;;;;;4.50;2.95;;;;;;;;;;5060758;28;20086;-80
2024/03/17 02:24:47;;;;;;;10.38;3.67;;;;;;;;;;5058340;28;20478;-80
2024/03/17 02:27:32;;;;;;;6.25;2.85;;;;;;;;;;5057467;28;20085;-81
2024/03/17 02:30:18;;;;;;;6.60;2.70;;;;;;;;;;5073732;28;20463;-82
2024/03/17 02:33:03;;;;;;;7.43;2.88;;;;;;;;;;5072336;28;20031;-82
2024/03/17 02:35:48;;;;;;;6.20;3.00;;;;;;;;;;5049182;28;20048;-81
2024/03/17 02:41:41;;;;;;;5.03;2.78;;;;;;;;;;5053005;28;20024;-81
2024/03/17 02:44:27;;;;;;;4.65;2.80;;;;;;;;;;5066088;28;20062;-81
2024/03/17 02:47:14;;;;;;;5.93;2.85;;;;;;;;;;5041101;28;20040;-80
2024/03/17 02:49:59;;;;;;;5.47;2.65;;;;;;;;;;5053119;28;20031;-81
2024/03/17 02:52:45;;;;;;;8.40;2.92;;;;;;;;;;5053578;28;20013;-81
2024/03/17 02:55:30;;;;;;;5.88;3.10;;;;;;;;;;5039953;28;20017;-82
2024/03/17 02:58:15;;;;;;;9.98;3.03;;;;;;;;;;5053440;28;20023;-82
2024/03/17 03:01:01;;;;;;;5.13;2.90;;;;;;;;;;5054366;28;20437;-82
2024/03/17 03:03:46;;;;;;;6.55;2.50;;;;;;;;;;5061675;28;20143;-82
2024/03/17 03:06:32;;;;;;;7.20;3.03;;;;;;;;;;5041676;28;20112;-81
2024/03/17 03:09:25;;;;;;;7.22;2.78;;;;;;;;;;5056182;28;20027;-82
2024/03/17 03:12:10;;;;;;;5.90;2.85;;;;;;;;;;5055857;28;20127;-81
2024/03/17 03:14:56;;;;;;;4.28;2.28;;;;;;;;;;5055887;28;20035;-82
2024/03/17 03:17:41;;;;;;;5.32;3.03;;;;;;;;;;5057195;28;20104;-82
2024/03/17 03:20:28;;;;;;;8.23;2.78;;;;;;;;;;5060402;28;20028;-82
2024/03/17 03:23:13;;;;;;;7.93;3.15;;;;;;;;;;5056171;28;20078;-80
2024/03/17 03:25:59;;;;;;;5.43;2.75;;;;;;;;;;5056100;28;20056;-81
2024/03/17 03:28:44;;;;;;;6.53;3.13;;;;;;;;;;5055634;28;20494;-82
2024/03/17 03:31:30;;;;;;;5.75;3.30;;;;;;;;;;5062268;28;20024;-81
2024/03/17 03:34:16;;;;;;;5.05;2.60;;;;;;;;;;5041780;28;20051;-82
2024/03/17 03:37:01;;;;;;;6.20;3.75;;;;;;;;;;5044346;28;20029;-81
2024/03/17 03:39:46;;;;;;;7.10;2.90;;;;;;;;;;5052025;28;20434;-81
2024/03/17 03:42:32;;;;;;;6.57;3.35;;;;;;;;;;5059695;28;20032;-82
2024/03/17 03:45:17;;;;;;;7.07;3.42;;;;;;;;;;5055337;28;20104;-81
2024/03/17 03:48:03;;;;;;;4.82;2.97;;;;;;;;;;5054569;28;20544;-82
2024/03/17 03:50:48;;;;;;;5.68;3.25;;;;;;;;;;5043762;28;20033;-82
2024/03/17 03:53:34;;;;;;;5.13;2.92;;;;;;;;;;5051675;28;20544;-81
2024/03/17 03:56:20;;;;;;;5.78;3.60;;;;;;;;;;5055300;28;20452;-81
2024/03/17 03:59:05;;;;;;;8.15;3.97;;;;;;;;;;5048905;28;20033;-82
2024/03/17 04:01:52;;;;;;;7.22;3.45;;;;;;;;;;5050891;28;20028;-82
2024/03/17 04:04:37;;;;;;;8.10;4.05;;;;;;;;;;5044726;28;20074;-82
2024/03/17 04:07:22;;;;;;;7.60;2.97;;;;;;;;;;5053439;28;20403;-82
2024/03/17 04:10:08;;;;;;;5.05;2.80;;;;;;;;;;5050849;28;20425;-82
2024/03/17 04:12:53;;;;;;;6.13;3.42;;;;;;;;;;5049973;28;20383;-81
2024/03/17 04:15:38;;;;;;;4.95;2.95;;;;;;;;;;5051596;28;20028;-80
2024/03/17 04:18:24;;;;;;;6.93;3.08;;;;;;;;;;5055887;28;20036;-82
2024/03/17 04:21:10;;;;;;;5.97;3.65;;;;;;;;;;5033857;28;20033;-81
2024/03/17 04:23:55;;;;;;;7.72;3.78;;;;;;;;;;5048533;28;20576;-80
2024/03/17 04:26:40;;;;;;;8.40;4.13;;;;;;;;;;5052248;28;20035;-81
2024/03/17 04:29:25;;;;;;;7.13;3.58;;;;;;;;;;5032149;28;20032;-81
2024/03/17 04:32:11;;;;;;;5.97;3.83;;;;;;;;;;5049682;28;20024;-81
2024/03/17 04:34:56;;;;;;;7.60;4.05;;;;;;;;;;5051484;28;20052;-82
2024/03/17 04:37:41;;;;;;;6.25;4.03;;;;;;;;;;5052428;28;20024;-81
2024/03/17 04:40:26;;;;;;;7.35;4.30;;;;;;;;;;5067280;28;20043;-81
2024/03/17 04:43:11;;;;;;;7.95;4.05;;;;;;;;;;5076459;28;20512;-82
2024/03/17 04:46:01;;;;;;;7.93;4.00;;;;;;;;;;5077227;28;20019;-82
2024/03/17 04:48:46;;;;;;;4.70;3.28;;;;;;;;;;5060188;28;20020;-82
2024/03/17 04:51:33;;;;;;;5.90;3.53;;;;;;;;;;5078489;28;20056;-82
2024/03/17 04:54:17;;;;;;;8.50;4.70;;;;;;;;;;5077262;28;20074;-81
2024/03/17 04:57:02;;;;;;;5.28;3.42;;;;;;;;;;5038355;28;20028;-80
2024/03/17 04:59:48;;;;;;;7.65;4.32;;;;;;;;;;5050720;28;20074;-80
2024/03/17 05:02:33;;;;;;;6.93;4.47;;;;;;;;;;5052837;28;20017;-81
2024/03/17 05:05:18;;;;;;;8.65;4.22;;;;;;;;;;5052570;28;20104;-82
2024/03/17 05:08:03;;;;;;;7.18;4.07;;;;;;;;;;5050879;28;20028;-82
2024/03/17 05:10:55;;;;;;;8.27;3.78;;;;;;;;;;5037739;28;20434;-81
2024/03/17 05:13:42;;;;;;;7.93;4.07;;;;;;;;;;5050116;28;20581;-81
2024/03/17 05:16:29;;;;;;;8.57;4.20;;;;;;;;;;5036255;28;20029;-81
2024/03/17 05:19:14;;;;;;;5.93;3.58;;;;;;;;;;5041665;28;20031;-81
2024/03/17 05:21:59;;;;;;;5.60;3.70;;;;;;;;;;5048542;28;20032;-81
2024/03/17 05:24:45;;;;;;;9.32;3.83;;;;;;;;;;5039741;28;20115;-82
2024/03/17 05:27:30;;;;;;;6.15;3.90;;;;;;;;;;5052082;28;20052;-83
2024/03/17 05:30:15;;;;;;;11.48;3.90;;;;;;;;;;5051059;28;20500;-82
2024/03/17 05:33:01;;;;;;;7.50;4.30;;;;;;;;;;5051428;28;20028;-82
2024/03/17 05:35:52;;;;;;;8.70;4.40;;;;;;;;;;5059393;28;20060;-80
2024/03/17 05:38:40;;;;;;;7.43;4.78;;;;;;;;;;5074634;28;20058;-82
2024/03/17 05:41:26;;;;;;;7.25;4.35;;;;;;;;;;5074561;28;20036;-80
2024/03/17 05:44:11;;;;;;;6.90;4.25;;;;;;;;;;5073426;28;20024;-81
2024/03/17 05:46:58;;;;;;;7.13;4.20;;;;;;;;;;5074746;28;20466;-80
2024/03/17 05:49:43;;;;;;;7.93;4.40;;;;;;;;;;5075182;28;20371;-81
2024/03/17 05:52:28;;;;;;;8.45;4.43;;;;;;;;;;5073790;28;20463;-81
2024/03/17 05:55:13;;;;;;;7.22;4.28;;;;;;;;;;5073876;28;20389;-81
2024/03/17 05:57:59;;;;;;;9.80;4.90;;;;;;;;;;5064068;28;20028;-81
2024/03/17 06:00:44;;;;;;;7.80;4.15;;;;;;;;;;5073780;28;20039;-81
2024/03/17 06:03:29;;;;;;;9.13;4.68;;;;;;;;;;5074088;28;20027;-81
2024/03/17 06:06:14;;;;;;;8.15;4.72;;;;;;;;;;5065035;28;20045;-81
2024/03/17 06:08:59;;;;;;;7.32;4.45;;;;;;;;;;5074651;28;20492;-82
2024/03/17 06:11:48;;;;;;;7.30;5.10;;;;;;;;;;5074304;28;20120;-81
2024/03/17 06:14:34;;;;;;;8.15;4.07;;;;;;;;;;5069959;28;20081;-80
2024/03/17 06:17:19;;;;;;;12.38;4.65;;;;;;;;;;5074220;28;20024;-80
2024/03/17 06:20:05;;;;;;;7.53;4.53;;;;;;;;;;5074475;28;20154;-81
2024/03/17 06:22:50;;;;;;;6.95;4.10;;;;;;;;;;5073990;28;20039;-81
2024/03/17 06:25:40;;;;;;;8.23;4.45;;;;;;;;;;5067445;28;20036;-80
2024/03/17 06:28:26;;;;;;;9.80;5.22;;;;;;;;;;5074232;28;20027;-80
2024/03/17 06:31:11;;;;;;;8.50;4.85;;;;;;;;;;5073787;28;20056;-80
2024/03/17 06:33:56;;;;;;;8.63;4.88;;;;;;;;;;5067093;28;20037;-80
2024/03/17 06:36:42;;;;;;;10.00;5.45;;;;;;;;;;5069257;28;20032;-80
2024/03/17 06:39:27;;;;;;;9.75;5.55;;;;;;;;;;5061204;28;20024;-82
2024/03/17 06:42:12;;;;;;;10.68;5.78;;;;;;;;;;5063457;28;20066;-79
2024/03/17 06:44:58;;;;;;;9.27;6.13;;;;;;;;;;5069624;28;20039;-80
2024/03/17 06:47:43;;;;;;;12.02;6.80;;;;;;;;;;5065104;28;20031;-80
2024/03/17 06:50:29;;;;;;;9.73;5.53;;;;;;;;;;5062376;28;20020;-79
2024/03/17 06:53:14;;;;;;;11.55;5.95;;;;;;;;;;5073219;28;20024;-81
2024/03/17 06:55:59;;;;;;;10.65;6.20;;;;;;;;;;5063081;28;20471;-80
2024/03/17 06:58:44;;;;;;;11.25;6.25;;;;;;;;;;5069215;28;20383;-80
2024/03/17 07:01:30;;;;;;;13.45;6.95;;;;;;;;;;5065650;28;20428;-80
2024/03/17 07:04:16;;;;;;;11.90;6.63;;;;;;;;;;5072072;28;20028;-79
2024/03/17 07:07:01;;;;;;;11.73;6.70;;;;;;;;;;5073750;28;20032;-80
2024/03/17 07:09:46;;;;;;;11.88;7.20;;;;;;;;;;5077524;28;20462;-80
2024/03/17 07:12:32;;;;;;;12.32;7.50;;;;;;;;;;5070057;28;20082;-80
2024/03/17 07:15:17;;;;;;;10.68;7.60;;;;;;;;;;5067228;28;20024;-79
2024/03/17 07:18:02;;;;;;;10.93;6.97;;;;;;;;;;5073304;28;20107;-79
2024/03/17 07:20:47;;;;;;;11.55;6.97;;;;;;;;;;5068125;28;20032;-79
2024/03/17 07:23:33;;;;;;;14.27;8.63;;;;;;;;;;5068730;28;20028;-80
2024/03/17 07:26:18;;;;;;;11.32;7.40;;;;;;;;;;5068411;28;20385;-80
2024/03/17 07:29:03;;;;;;;12.57;7.68;;;;;;;;;;5073433;28;20024;-79
2024/03/17 07:31:48;;;;;;;12.50;8.27;;;;;;;;;;5067996;28;20027;-79
2024/03/17 07:34:35;;;;;;;12.02;8.13;;;;;;;;;;5072039;28;20113;-79
2024/03/17 07:37:20;;;;;;;12.68;8.43;;;;;;;;;;5072864;28;20508;-80
2024/03/17 07:40:10;;;;;;;15.68;8.82;;;;;;;;;;5059957;28;20458;-78
2024/03/17 07:42:55;;;;;;;15.35;9.05;;;;;;;;;;5065774;28;20438;-79
2024/03/17 07:45:42;;;;;;;15.55;9.45;;;;;;;;;;5072155;28;20036;-79
2024/03/17 07:48:28;;;;;;;11.25;8.38;;;;;;;;;;5072026;28;20028;-79
2024/03/17 07:51:14;;;;;;;12.93;8.55;;;;;;;;;;5058689;28;20085;-79
2024/03/17 07:53:59;;;;;;;12.82;9.05;;;;;;;;;;5058319;28;20041;-81
2024/03/17 07:56:45;;;;;;;14.35;8.73;;;;;;;;;;5063848;28;20066;-81
2024/03/17 07:59:31;;;;;;;11.88;8.40;;;;;;;;;;5058600;28;20165;-81
2024/03/17 08:02:16;;;;;;;13.38;8.15;;;;;;;;;;5068931;28;20080;-81
2024/03/17 08:05:01;;;;;;;14.70;7.95;;;;;;;;;;5071484;28;20020;-81
2024/03/17 08:07:46;;;;;;;10.70;7.97;;;;;;;;;;5071762;28;20059;-78
2024/03/17 08:10:31;;;;;;;15.18;8.88;;;;;;;;;;5071995;28;20012;-80
2024/03/17 08:13:17;;;;;;;13.98;9.07;;;;;;;;;;5055628;28;20024;-78
2024/03/17 08:16:05;;;;;;;10.32;7.97;;;;;;;;;;5064616;28;20469;-79
2024/03/17 08:18:50;;;;;;;10.45;7.82;;;;;;;;;;5067883;28;20080;-80
2024/03/17 08:21:35;;;;;;;11.75;8.32;;;;;;;;;;5059890;28;20020;-79
2024/03/17 08:24:21;;;;;;;13.23;7.57;;;;;;;;;;5057215;28;20028;-79
2024/03/17 08:27:06;;;;;;;9.60;7.07;;;;;;;;;;5062160;28;20468;-79
2024/03/17 08:29:51;;;;;;;10.57;6.90;;;;;;;;;;5060829;28;20074;-79
2024/03/17 08:32:36;;;;;;;11.20;7.07;;;;;;;;;;5058186;28;20384;-79
2024/03/17 08:35:22;;;;;;;9.93;7.55;;;;;;;;;;5064784;28;20048;-79
2024/03/17 08:38:07;;;;;;;13.85;7.65;;;;;;;;;;5061960;28;20032;-79
2024/03/17 08:40:52;;;;;;;10.07;6.40;;;;;;;;;;5058353;28;20029;-79
2024/03/17 08:43:38;;;;;;;9.00;6.13;;;;;;;;;;5055235;28;20043;-79
2024/03/17 08:46:23;;;;;;;12.23;5.22;;;;;;;;;;5061254;28;20042;-79
2024/03/17 08:49:08;;;;;;;8.35;5.63;;;;;;;;;;5056436;28;20020;-79
2024/03/17 08:51:54;;;;;;;9.00;6.53;;;;;;;;;;5062871;28;20031;-80
2024/03/17 08:54:39;;;;;;;11.27;6.00;;;;;;;;;;5060448;28;20060;-81
2024/03/17 08:57:24;;;;;;;7.75;5.35;;;;;;;;;;5053705;28;20378;-79
2024/03/17 09:00:10;;;;;;;8.90;5.50;;;;;;;;;;5067324;28;20060;-79
2024/03/17 09:02:55;;;;;;;8.00;5.28;;;;;;;;;;5058242;28;20054;-79
2024/03/17 09:05:44;;;;;;;9.18;5.25;;;;;;;;;;5058464;28;20164;-77
2024/03/17 09:08:29;;;;;;;9.55;5.50;;;;;;;;;;5063255;28;20028;-83
2024/03/17 09:11:14;;;;;;;8.40;5.75;;;;;;;;;;5070508;28;20028;-80
2024/03/17 09:14:00;;;;;;;7.15;5.00;;;;;;;;;;5074729;28;20028;-80
2024/03/17 09:16:46;;;;;;;6.63;4.50;;;;;;;;;;5068479;28;20136;-78
2024/03/17 09:19:33;;;;;;;9.80;5.00;;;;;;;;;;5060969;28;20469;-78
2024/03/17 09:22:18;;;;;;;6.35;4.82;;;;;;;;;;5059546;28;20467;-80
2024/03/17 09:25:04;;;;;;;8.10;5.47;;;;;;;;;;5060254;28;20052;-80
2024/03/17 09:27:50;;;;;;;8.77;4.80;;;;;;;;;;5059975;28;20096;-81
2024/03/17 09:30:35;;;;;;;7.82;5.30;;;;;;;;;;5057738;28;20015;-83
2024/03/17 09:33:20;;;;;;;10.43;5.97;;;;;;;;;;5066786;28;20701;-80
2024/03/17 09:36:06;;;;;;;10.63;6.13;;;;;;;;;;5069392;28;20402;-80
2024/03/17 09:38:52;;;;;;;8.25;5.25;;;;;;;;;;5070539;28;20470;-80
2024/03/17 09:41:38;;;;;;;10.35;6.13;;;;;;;;;;5070915;28;20039;-80
2024/03/17 09:44:24;;;;;;;10.02;5.75;;;;;;;;;;5070388;28;20471;-81
2024/03/17 09:47:14;;;;;;;7.18;4.88;;;;;;;;;;5069813;28;20027;-80
2024/03/17 09:50:00;;;;;;;7.95;5.07;;;;;;;;;;5070790;28;20390;-80
2024/03/17 09:52:45;;;;;;;9.45;5.55;;;;;;;;;;5070399;28;20082;-81
2024/03/17 09:55:31;;;;;;;8.32;5.20;;;;;;;;;;5070318;28;20039;-81
2024/03/17 09:58:19;;;;;;;6.88;4.68;;;;;;;;;;5068354;28;20046;-81
2024/03/17 10:01:05;;;;;;;8.23;4.65;;;;;;;;;;5061616;28;20020;-84
2024/03/17 10:03:52;;;;;;;7.47;5.05;;;;;;;;;;5068563;28;20040;-83
2024/03/17 10:06:46;;;;;;;8.50;4.97;;;;;;;;;;5070596;28;20020;-81
2024/03/17 10:09:32;;;;;;;7.63;4.35;;;;;;;;;;5056290;28;20057;-80
2024/03/17 10:12:25;;;;;;;7.20;4.28;;;;;;;;;;5064855;28;20028;-81
2024/03/17 10:15:11;;;;;;;7.70;4.57;;;;;;;;;;5073541;28;20168;-81
2024/03/17 10:17:56;;;;;;;9.77;4.65;;;;;;;;;;5073933;28;20024;-81
2024/03/17 10:20:41;;;;;;;6.15;4.22;;;;;;;;;;5072928;28;20493;-83
2024/03/17 10:23:28;;;;;;;7.35;4.32;;;;;;;;;;5086453;28;20024;-81
2024/03/17 10:26:14;;;;;;;7.53;4.05;;;;;;;;;;5073599;28;20096;-80
2024/03/17 10:28:59;;;;;;;7.32;4.50;;;;;;;;;;5074384;28;20103;-82
2024/03/17 10:31:44;;;;;;;9.30;3.95;;;;;;;;;;5072552;28;20028;-83
2024/03/17 10:34:36;;;;;;;6.30;4.30;;;;;;;;;;5074053;28;20052;-82
2024/03/17 10:37:26;;;;;;;6.70;3.78;;;;;;;;;;5072272;28;20020;-83
2024/03/17 10:40:12;;;;;;;7.25;3.55;;;;;;;;;;5059181;28;20375;-82
2024/03/17 10:42:58;;;;;;;6.10;3.70;;;;;;;;;;5072955;28;20485;-83
2024/03/17 10:45:44;;;;;;;5.88;3.13;;;;;;;;;;5067703;28;20457;-82
2024/03/17 10:48:32;;;;;;;5.38;3.17;;;;;;;;;;5067571;28;20024;-83
2024/03/17 10:51:17;;;;;;;3.53;2.78;;;;;;;;;;5066425;28;20379;-83
2024/03/17 10:54:03;;;;;;;5.75;3.70;;;;;;;;;;5071952;28;20020;-82
2024/03/17 10:56:48;;;;;;;9.23;3.67;;;;;;;;;;5045967;28;20024;-83
2024/03/17 10:59:46;;;;;;;6.70;3.40;;;;;;;;;;5062669;28;20024;-82
2024/03/17 11:02:35;;;;;;;4.72;2.60;;;;;;;;;;5048950;28;20107;-82
2024/03/17 11:05:21;;;;;;;;;;;;;;;;;;5073366;28;20028;-83
2024/03/17 11:08:10;;;;;;;5.15;3.20;;;;;;;;;;5071135;28;19946;-81
2024/03/17 11:10:55;;;;;;;9.90;6.35;;;;;;;;;;5054605;28;20035;-81
2024/03/17 11:13:40;;;;;;;6.72;3.85;;;;;;;;;;5051859;28;20036;-81
2024/03/17 11:16:27;;;;;;;4.15;2.33;;;;;;;;;;5052133;28;20077;-81
2024/03/17 11:19:14;;;;;;;6.28;3.50;;;;;;;;;;5048139;28;20028;-82
2024/03/17 11:22:19;;;;;;;5.97;2.50;;;;;;;;;;5064684;28;20487;-82
2024/03/17 11:25:34;;;;;;;5.57;3.15;;;;;;;;;;5071850;28;20043;-80
2024/03/17 11:28:39;;;;;;;3.42;2.00;;;;;;;;;;5063443;28;20086;-80
2024/03/17 11:31:55;;;;;;;6.85;3.03;;;;;;;;;;5052385;28;20032;-79
2024/03/17 11:34:40;;;;;;;3.63;2.25;;;;;;;;;;5067076;28;20056;-80
2024/03/17 11:37:41;;;;;;;5.00;2.30;;;;;;;;;;5071726;28;20096;-81
2024/03/17 11:40:27;;;;;;;5.45;2.10;;;;;;;;;;5072434;28;20015;-81
2024/03/17 11:43:16;;;;;;;3.88;2.40;;;;;;;;;;5072503;28;20039;-81
2024/03/17 11:46:01;;;;;;;5.82;2.30;;;;;;;;;;5072036;28;20128;-80
2024/03/17 11:48:46;;;;;;;5.95;2.53;;;;;;;;;;5071836;28;20541;-82
2024/03/17 11:51:35;;;;;;;3.28;2.05;;;;;;;;;;5059470;28;20032;-81
2024/03/17 11:54:21;;;;;;;7.28;2.90;;;;;;;;;;5071596;28;20036;-82
2024/03/17 11:57:07;;;;;;;7.68;3.05;;;;;;;;;;5071342;28;20040;-81
2024/03/17 11:59:54;;;;;;;5.18;2.60;;;;;;;;;;5071978;28;20036;-82
2024/03/17 12:02:39;;;;;;;6.80;3.67;;;;;;;;;;5070775;28;20032;-81
2024/03/17 12:05:25;;;;;;;10.23;3.30;;;;;;;;;;5071660;28;20383;-82
2024/03/17 12:08:20;;;;;;;4.18;2.45;;;;;;;;;;5067781;28;20080;-81
2024/03/17 12:11:16;;;;;;;6.38;2.70;;;;;;;;;;5070813;28;20253;-82
2024/03/17 12:14:09;;;;;;;5.15;2.45;;;;;;;;;;5068211;28;20040;-81
2024/03/17 12:16:55;;;;;;;12.90;3.17;;;;;;;;;;5072281;28;20040;-81
2024/03/17 12:19:44;;;;;;;6.18;3.17;;;;;;;;;;5071781;28;20478;-81
2024/03/17 12:22:33;;;;;;;6.70;4.10;;;;;;;;;;5069833;28;20043;-80
2024/03/17 12:25:20;;;;;;;5.50;3.47;;;;;;;;;;5071266;28;20028;-81
2024/03/17 12:28:15;;;;;;;4.18;2.85;;;;;;;;;;5071180;28;20032;-81
2024/03/17 12:31:00;;;;;;;5.65;3.78;;;;;;;;;;5071082;28;20035;-81
2024/03/17 12:33:45;;;;;;;5.75;3.20;;;;;;;;;;5071091;28;20095;-81
2024/03/17 12:36:31;;;;;;;8.65;3.05;;;;;;;;;;5042958;28;20044;-81
2024/03/17 12:39:23;;;;;;;4.85;3.35;;;;;;;;;;5081760;28;20552;-80
2024/03/17 12:42:09;;;;;;;5.13;3.35;;;;;;;;;;5064166;28;20020;-81
2024/03/17 12:44:55;;;;;;;5.32;3.25;;;;;;;;;;5064927;28;20114;-81
2024/03/17 12:47:46;;;;;;;5.63;4.00;;;;;;;;;;5056073;28;20514;-80
2024/03/17 12:50:31;;;;;;;5.45;3.55;;;;;;;;;;5053431;28;20020;-81
2024/03/17 12:53:22;;;;;;;10.25;3.22;;;;;;;;;;5063363;28;20446;-81
2024/03/17 13:02:15;;;;;;;6.72;3.30;;;;;;;;;;5089605;28;20017;-81
2024/03/17 13:05:15;;;;;;;4.97;3.13;;;;;;;;;;5099602;28;20032;-82
2024/03/17 13:08:01;;;;;;;9.18;3.33;;;;;;;;;;5086712;28;20023;-81
2024/03/17 13:10:47;;;;;;;4.97;3.05;;;;;;;;;;5076213;28;20036;-82
2024/03/17 13:13:32;;;;;;;6.53;3.50;;;;;;;;;;5072345;28;20394;-81
2024/03/17 13:16:17;;;;;;;8.85;3.60;;;;;;;;;;5072729;28;20499;-81
2024/03/17 13:19:02;;;;;;;4.85;2.45;;;;;;;;;;5075332;28;20027;-81
2024/03/17 13:21:48;;;;;;;7.40;3.60;;;;;;;;;;5070538;28;20028;-81
2024/03/17 13:24:33;;;;;;;6.00;3.30;;;;;;;;;;5067504;28;20047;-81
2024/03/17 13:27:18;;;;;;;6.10;3.28;;;;;;;;;;5059096;28;20028;-80
2024/03/17 13:30:06;;;;;;;7.35;3.10;;;;;;;;;;5067043;28;20330;-81
2024/03/17 13:33:00;;;;;;;5.90;2.90;;;;;;;;;;5055062;28;20090;-83
2024/03/17 13:35:45;;;;;;;7.32;2.95;;;;;;;;;;5052753;28;20045;-82
2024/03/17 13:38:31;;;;;;;5.03;2.97;;;;;;;;;;5067583;28;20482;-81
2024/03/17 13:41:16;;;;;;;4.45;2.67;;;;;;;;;;5051160;28;20495;-81
2024/03/17 13:44:01;;;;;;;6.85;2.83;;;;;;;;;;5070499;28;20081;-82
2024/03/17 13:46:47;;;;;;;7.15;2.78;;;;;;;;;;5060689;28;20021;-81
2024/03/17 13:49:33;;;;;;;4.93;3.08;;;;;;;;;;5062424;28;20082;-81
2024/03/17 13:52:21;;;;;;;5.90;2.70;;;;;;;;;;5071325;28;20103;-81
2024/03/17 13:55:12;;;;;;;4.65;2.80;;;;;;;;;;5074647;28;20031;-81
2024/03/17 13:57:59;;;;;;;3.40;2.20;;;;;;;;;;5071680;28;20040;-81
2024/03/17 14:00:44;;;;;;;3.03;2.45;;;;;;;;;;5070059;28;20033;-80
2024/03/17 14:03:30;;;;;;;4.90;3.05;;;;;;;;;;5050413;28;20031;-81
2024/03/17 14:06:15;;;;;;;6.93;2.72;;;;;;;;;;5054506;28;20095;-82
2024/03/17 14:09:01;;;;;;;6.00;2.60;;;;;;;;;;5065359;28;20326;-84
2024/03/17 14:11:46;;;;;;;7.13;2.47;;;;;;;;;;5074388;28;20016;-84
2024/03/17 14:14:31;;;;;;;5.88;2.20;;;;;;;;;;5060370;28;20028;-82
2024/03/17 14:17:16;;;;;;;5.78;2.38;;;;;;;;;;5055096;28;20024;-83
2024/03/17 14:20:03;;;;;;;4.35;2.20;;;;;;;;;;5055339;28;20117;-83
2024/03/17 14:22:53;;;;;;;3.95;2.60;;;;;;;;;;5071756;28;20020;-82
2024/03/17 14:25:38;;;;;;;5.35;2.53;;;;;;;;;;5061827;28;20463;-82
2024/03/17 14:28:24;;;;;;;7.20;2.78;;;;;;;;;;5051322;28;20464;-82
2024/03/17 14:31:10;;;;;;;6.45;2.83;;;;;;;;;;5088726;28;20024;-83
2024/03/17 14:33:55;;;;;;;5.00;2.22;;;;;;;;;;5064624;28;20534;-82
2024/03/17 14:36:41;;;;;;;5.88;2.65;;;;;;;;;;5044470;28;20123;-81
2024/03/17 14:39:28;;;;;;;5.30;2.20;;;;;;;;;;5054168;28;20360;-81
2024/03/17 14:42:14;;;;;;;3.38;2.45;;;;;;;;;;5053905;28;20024;-82
2024/03/17 14:45:00;;;;;;;5.18;2.75;;;;;;;;;;5053373;28;20021;-82
2024/03/17 14:47:45;;;;;;;4.70;2.47;;;;;;;;;;5051684;28;20024;-83
2024/03/17 14:50:31;;;;;;;4.28;2.30;;;;;;;;;;5053610;28;20020;-82
2024/03/17 14:53:16;;;;;;;4.90;2.00;;;;;;;;;;5053038;28;20028;-82
2024/03/17 14:56:03;;;;;;;6.82;2.03;;;;;;;;;;5034589;28;20025;-82
2024/03/17 14:58:49;;;;;;;4.05;2.10;;;;;;;;;;5035215;28;20063;-82
2024/03/17 15:01:34;;;;;;;4.32;2.33;;;;;;;;;;5051671;28;20025;-82
2024/03/17 15:04:19;;;;;;;3.03;1.83;;;;;;;;;;5052749;28;20021;-82
2024/03/17 15:07:05;;;;;;;5.88;2.63;;;;;;;;;;5052642;28;20035;-81
2024/03/17 15:09:50;;;;;;;6.82;2.38;;;;;;;;;;5041537;28;20115;-81
2024/03/17 15:12:35;;;;;;;5.97;2.70;;;;;;;;;;5052983;28;20017;-81
2024/03/17 15:15:22;;;;;;;6.40;2.45;;;;;;;;;;5047280;28;20037;-82
2024/03/17 15:18:07;;;;;;;5.90;2.60;;;;;;;;;;5040689;28;20031;-81
2024/03/17 15:20:54;;;;;;;6.10;2.97;;;;;;;;;;5052665;28;20032;-80
2024/03/17 15:23:40;;;;;;;5.93;2.53;;;;;;;;;;5053332;28;20035;-82
2024/03/17 15:26:25;;;;;;;4.65;1.95;;;;;;;;;;5043075;28;20060;-81
2024/03/17 15:29:12;;;;;;;5.60;2.50;;;;;;;;;;5053051;28;20032;-83
2024/03/17 15:31:57;;;;;;;6.13;2.30;;;;;;;;;;5052681;28;20021;-83
2024/03/17 15:34:43;;;;;;;3.15;2.13;;;;;;;;;;5057973;28;20048;-83
2024/03/17 15:37:28;;;;;;;3.78;2.10;;;;;;;;;;5044971;28;20048;-83
2024/03/17 15:40:16;;;;;;;5.68;2.55;;;;;;;;;;5072967;28;20028;-81
2024/03/17 15:43:02;;;;;;;5.40;2.42;;;;;;;;;;5072814;28;20024;-82
2024/03/17 15:45:47;;;;;;;3.78;2.78;;;;;;;;;;5057383;28;20069;-81
2024/03/17 15:48:32;;;;;;;7.43;2.25;;;;;;;;;;5058567;28;20103;-82
2024/03/17 15:51:18;;;;;;;5.82;3.67;;;;;;;;;;5066317;28;20027;-81
2024/03/17 15:54:03;;;;;;;4.13;2.85;;;;;;;;;;5065849;28;20025;-81
2024/03/17 15:56:49;;;;;;;5.20;2.60;;;;;;;;;;5046882;28;20466;-82
2024/03/17 15:59:37;;;;;;;8.10;3.30;;;;;;;;;;5059921;28;20019;-82
2024/03/17 16:02:22;;;;;;;9.02;3.88;;;;;;;;;;5071706;28;20027;-82
2024/03/17 16:05:11;;;;;;;10.48;3.42;;;;;;;;;;5052692;28;20121;-81
2024/03/17 16:07:58;;;;;;;7.43;3.30;;;;;;;;;;5038455;28;20332;-82
2024/03/17 16:10:50;;;;;;;8.32;3.40;;;;;;;;;;5072665;28;20486;-81
2024/03/17 16:13:36;;;;;;;6.78;3.03;;;;;;;;;;5065625;28;20035;-82
2024/03/17 16:16:25;;;;;;;7.25;3.35;;;;;;;;;;5060468;28;20016;-82
2024/03/17 16:19:10;;;;;;;6.80;3.70;;;;;;;;;;5070934;28;20075;-82
2024/03/17 16:21:56;;;;;;;5.10;3.08;;;;;;;;;;5063131;28;20111;-82
2024/03/17 16:24:42;;;;;;;4.93;2.95;;;;;;;;;;5044727;28;20095;-81
2024/03/17 16:27:27;;;;;;;4.97;2.70;;;;;;;;;;5055768;28;20024;-81
2024/03/17 16:30:13;;;;;;;5.60;2.72;;;;;;;;;;5051231;28;20017;-81
2024/03/17 16:32:58;;;;;;;7.53;3.28;;;;;;;;;;5051975;28;20467;-81
2024/03/17 16:35:45;;;;;;;10.80;4.50;;;;;;;;;;5051697;28;20080;-82
2024/03/17 16:38:31;;;;;;;9.90;4.07;;;;;;;;;;5051079;28;20497;-82
2024/03/17 16:41:16;;;;;;;8.57;3.63;;;;;;;;;;5051435;28;20470;-82
2024/03/17 16:44:05;;;;;;;8.77;5.13;;;;;;;;;;5043381;28;20031;-81